Accueil
METAR-TAF:

METAR-TAF

Aéroports :

Aéroport de San José del Cabo

San José Del Cabo, Mexique

latitude: 23-09N, longitude: 109-42W, altitude: 109 m

Observation

Le bulletin a été fait il y a 1 heure et 31 minutes, à 00:40 UTC
Vent 8 kt de sud/sud-est
Température 29°C
Humidité 52%
Pression 1009 hPa
Visibilité: 19.3 km
Ciel clair

METAR: MMSD 230040Z 16008KT 12SM SKC 29/18 A2980

Heure: 20:11 (02:11 UTC)

Prévision

Le bulletin a été fait il y a 8 heures et 58 minutes, à 17:13 UTC
Prévision valable du 22 à 18 UTC au 23 à 18 UTC
Vent 12 kt de sud-est
Visibilité: 10 km
Ciel clair
A partir de 23 à 0300 UTC
Vent 5 kt de sud-est
Visibilité: 9.7 km
Nuages épars à une hauteur de 12000 ft
brume sèche
A partir de 23 à 1200 UTC
Vent 5 kt de sud-est
Visibilité: 10 km
Nuages épars à une hauteur de 4000 ft

TAF: MMSD 221713Z 2218/2318 14012KT P6SM SKC FM230300 14005KT 6SM HZ SCT120 FM231200 14005KT P6SM SCT040

Observations et prévisions météorologiques de plus de 4000 aéroports (messages METAR et TAF).

Les stations disponibles sont représentées par des disques jaunes et rouges sur la carte.

Passer la souris dessus pour voir le nom de la station.

Cliquer dessus pour voir les observations et prévisions météorologiques.

Pour changer de carte: cliquez sur les boutons verts avec une croix noire pour zoomer, sur le bouton vert avec un tiret pour effectuer un zoom arrière, ou sur les flèches vertes pour les cartes adjacentes.


METAR-TAF: